Terminal Aerodrome Forecast
Issued by NWS Brownsville, TX

Home | Current Version | Previous Version | Text Only | Print | Product List | Glossary On
Versions: 1 2 3 4 5 6 7 8 9 10 11 12 13 14 15 16 17
000
FTUS44 KBRO 061120
TAFMFE
TAF
KMFE 061120Z 0612/0712 16012KT 6SM HZ BKN013 BKN020
     FM061500 15019G25KT P6SM BKN025
     FM061700 15020G27KT P6SM SCT035 BKN040
     FM070300 15013KT P6SM SKC=

USA.gov is the U.S. government's official web portal to all federal, state and local government web resources and services.